createdAt,value
2022-11-28T00:02:09.189Z,17.50
2022-11-28T00:04:35.890Z,17.50
2022-11-28T00:07:02.676Z,17.60
2022-11-28T00:09:29.688Z,17.70
2022-11-28T00:11:56.423Z,17.70
2022-11-28T00:14:23.094Z,17.70
2022-11-28T00:16:49.872Z,17.70
2022-11-28T00:19:16.591Z,17.80
2022-11-28T00:21:43.290Z,17.80
2022-11-28T00:24:10.186Z,17.80
2022-11-28T00:26:39.879Z,17.80
2022-11-28T00:29:08.372Z,17.80
2022-11-28T00:31:42.326Z,17.90
2022-11-28T00:34:14.446Z,17.90
2022-11-28T00:36:42.255Z,17.80
2022-11-28T00:39:08.866Z,17.80
2022-11-28T00:41:35.600Z,18.00
2022-11-28T00:44:02.263Z,18.00
2022-11-28T00:46:29.439Z,17.90
2022-11-28T00:48:58.008Z,17.90
2022-11-28T00:51:27.785Z,18.00
2022-11-28T00:53:57.349Z,17.90
2022-11-28T00:56:27.915Z,18.00
2022-11-28T00:58:54.870Z,18.00
2022-11-28T01:01:28.932Z,18.10
2022-11-28T01:03:57.795Z,18.00
2022-11-28T01:06:34.083Z,18.10
2022-11-28T01:09:03.212Z,18.10
2022-11-28T01:11:30.714Z,18.10
2022-11-28T01:14:00.346Z,18.10
2022-11-28T01:16:27.777Z,18.10
2022-11-28T01:18:54.686Z,18.10
2022-11-28T01:21:21.488Z,18.00
2022-11-28T01:23:48.410Z,18.00
2022-11-28T01:26:24.258Z,17.90
2022-11-28T01:28:51.279Z,17.90
2022-11-28T01:31:22.096Z,17.90
2022-11-28T01:33:49.254Z,17.80
2022-11-28T01:36:16.393Z,17.80
2022-11-28T01:38:43.730Z,17.70
2022-11-28T01:41:11.392Z,17.80
2022-11-28T01:43:38.488Z,17.80
2022-11-28T01:46:05.589Z,17.80
2022-11-28T01:48:42.123Z,17.80
2022-11-28T01:51:10.166Z,17.90
2022-11-28T01:53:40.869Z,17.90
2022-11-28T01:56:20.257Z,17.90
2022-11-28T01:58:59.058Z,17.80
2022-11-28T02:01:26.194Z,17.90
2022-11-28T02:03:53.683Z,17.90
2022-11-28T02:06:23.960Z,17.80
2022-11-28T02:08:55.398Z,18.20
2022-11-28T02:12:06.377Z,18.00
2022-11-28T02:14:53.631Z,18.00
2022-11-28T02:17:38.976Z,17.80
2022-11-28T02:20:36.207Z,17.90
2022-11-28T02:23:34.973Z,17.90
2022-11-28T02:26:22.666Z,17.90
2022-11-28T02:29:38.693Z,18.00
2022-11-28T02:32:11.234Z,18.00
2022-11-28T02:34:46.908Z,18.00
2022-11-28T02:37:47.808Z,18.00
2022-11-28T02:40:57.051Z,18.00
2022-11-28T02:43:34.540Z,18.00
2022-11-28T02:46:12.085Z,18.10
2022-11-28T02:48:52.807Z,18.00
2022-11-28T02:51:30.694Z,18.00
2022-11-28T02:53:58.755Z,17.80
2022-11-28T02:56:26.037Z,18.00
2022-11-28T02:58:53.334Z,18.00
2022-11-28T03:01:27.615Z,18.10
2022-11-28T03:04:00.533Z,18.00
2022-11-28T03:06:58.436Z,18.00
2022-11-28T03:09:43.724Z,18.10
2022-11-28T03:12:23.893Z,18.00
2022-11-28T03:14:56.410Z,18.00
2022-11-28T03:17:50.872Z,18.00
2022-11-28T03:20:41.046Z,18.00
2022-11-28T03:23:21.064Z,18.10
2022-11-28T03:26:07.507Z,18.00
2022-11-28T03:28:47.358Z,17.90
2022-11-28T03:31:31.530Z,18.00
2022-11-28T03:34:00.758Z,18.00
2022-11-28T03:36:35.382Z,18.00
2022-11-28T03:39:08.546Z,18.00
2022-11-28T03:42:11.787Z,18.10
2022-11-28T03:44:52.794Z,18.00
2022-11-28T03:47:19.482Z,18.00
2022-11-28T03:49:53.018Z,18.10
2022-11-28T03:52:32.586Z,18.00
2022-11-28T03:55:07.490Z,18.00
2022-11-28T03:57:58.531Z,18.00
2022-11-28T04:00:25.670Z,18.00
2022-11-28T04:03:18.457Z,18.00
2022-11-28T04:05:53.910Z,18.10
2022-11-28T04:08:51.608Z,18.10
2022-11-28T04:11:25.204Z,18.10
2022-11-28T04:14:20.652Z,18.00
2022-11-28T04:16:56.790Z,18.10
2022-11-28T04:19:31.740Z,18.10
2022-11-28T04:22:13.125Z,18.10
2022-11-28T04:24:56.207Z,18.00
2022-11-28T04:27:28.142Z,18.10
2022-11-28T04:29:58.706Z,18.10
2022-11-28T04:32:26.433Z,18.10
2022-11-28T04:34:57.731Z,18.10
2022-11-28T04:37:27.457Z,18.00
2022-11-28T04:39:55.524Z,18.10
2022-11-28T04:42:32.466Z,18.10
2022-11-28T04:45:13.716Z,18.10
2022-11-28T04:47:40.674Z,18.10
2022-11-28T04:50:08.120Z,18.10
2022-11-28T04:52:45.183Z,18.10
2022-11-28T04:55:38.045Z,18.00
2022-11-28T04:58:16.482Z,18.10
2022-11-28T05:00:44.208Z,18.10
2022-11-28T05:03:11.769Z,18.10
2022-11-28T05:05:45.270Z,18.10
2022-11-28T05:08:12.018Z,18.10
2022-11-28T05:10:38.727Z,18.00
2022-11-28T05:13:05.563Z,18.10
2022-11-28T05:15:32.232Z,18.10
2022-11-28T05:17:59.261Z,18.10
2022-11-28T05:20:26.674Z,18.10
2022-11-28T05:22:53.327Z,18.10
2022-11-28T05:25:20.120Z,18.10
2022-11-28T05:27:46.796Z,18.10
2022-11-28T05:30:14.031Z,18.10
2022-11-28T05:32:40.853Z,18.10
2022-11-28T05:35:08.068Z,18.00
2022-11-28T05:37:34.844Z,18.10
2022-11-28T05:40:01.527Z,18.20
2022-11-28T05:42:31.621Z,18.00
2022-11-28T05:44:58.265Z,18.10
2022-11-28T05:47:25.262Z,18.30
2022-11-28T05:49:52.019Z,18.10
2022-11-28T05:52:18.683Z,18.10
2022-11-28T05:54:45.377Z,18.10
2022-11-28T05:57:12.211Z,18.10
2022-11-28T05:59:38.904Z,18.10
2022-11-28T06:02:05.722Z,18.10
2022-11-28T06:04:32.490Z,18.10
2022-11-28T06:06:59.195Z,18.10
2022-11-28T06:09:26.366Z,18.20
2022-11-28T06:11:53.163Z,18.10
2022-11-28T06:14:19.851Z,18.20
2022-11-28T06:16:46.575Z,18.20
2022-11-28T06:19:13.891Z,18.20
2022-11-28T06:21:40.753Z,18.10
2022-11-28T06:24:07.818Z,18.10
2022-11-28T06:26:34.480Z,18.10
2022-11-28T06:29:01.171Z,18.10
2022-11-28T06:31:30.099Z,18.00
2022-11-28T06:33:58.170Z,18.00
2022-11-28T06:36:26.197Z,18.00
2022-11-28T06:38:53.445Z,18.00
2022-11-28T06:41:21.305Z,17.90
2022-11-28T06:43:48.101Z,17.90
2022-11-28T06:46:17.059Z,18.00
2022-11-28T06:48:44.605Z,17.90
2022-11-28T06:51:11.605Z,17.90
2022-11-28T06:53:38.283Z,17.90
2022-11-28T06:56:14.084Z,17.90
2022-11-28T06:58:41.404Z,17.90
2022-11-28T07:01:19.425Z,17.90
2022-11-28T07:03:46.987Z,17.90
2022-11-28T07:06:16.326Z,17.90
2022-11-28T07:08:43.437Z,17.90
2022-11-28T07:11:19.453Z,17.80
2022-11-28T07:13:46.973Z,17.80
2022-11-28T07:16:16.420Z,17.80
2022-11-28T07:18:43.549Z,17.80
2022-11-28T07:21:10.571Z,17.70
2022-11-28T07:23:37.698Z,17.80
2022-11-28T07:26:05.010Z,17.70
2022-11-28T07:28:33.274Z,17.80
2022-11-28T07:31:17.973Z,17.70
2022-11-28T07:33:46.924Z,17.70
2022-11-28T07:36:16.258Z,17.80
2022-11-28T07:38:46.628Z,17.70
2022-11-28T07:41:14.361Z,17.70
2022-11-28T07:43:45.618Z,17.70
2022-11-28T07:46:15.846Z,17.70
2022-11-28T07:48:43.001Z,17.70
2022-11-28T07:51:19.101Z,17.70
2022-11-28T07:53:46.549Z,17.70
2022-11-28T07:56:19.206Z,17.70
2022-11-28T07:58:47.168Z,17.70
2022-11-28T08:01:17.045Z,17.90
2022-11-28T08:03:47.178Z,17.70
2022-11-28T08:06:15.384Z,17.70
2022-11-28T08:08:42.539Z,17.50
2022-11-28T08:11:10.320Z,17.80
2022-11-28T08:13:38.680Z,17.70
2022-11-28T08:16:07.282Z,17.70
2022-11-28T08:18:37.238Z,17.70
2022-11-28T08:21:09.215Z,17.90
2022-11-28T08:23:36.958Z,17.60
2022-11-28T08:26:05.298Z,17.60
2022-11-28T08:28:32.042Z,17.70
2022-11-28T08:31:01.352Z,17.60
2022-11-28T08:33:28.089Z,17.60
2022-11-28T08:35:54.717Z,17.60
2022-11-28T08:38:21.401Z,17.40
2022-11-28T08:40:48.021Z,17.60
2022-11-28T08:43:14.650Z,17.60
2022-11-28T08:45:41.359Z,17.60
2022-11-28T08:48:08.052Z,17.60
2022-11-28T08:50:34.660Z,17.60
2022-11-28T08:53:07.691Z,17.60
2022-11-28T08:55:39.092Z,17.60
2022-11-28T08:58:08.531Z,17.60
2022-11-28T09:00:35.301Z,17.50
2022-11-28T09:03:01.942Z,17.50
2022-11-28T09:05:29.835Z,17.60
2022-11-28T09:07:56.777Z,17.50
2022-11-28T09:10:24.627Z,17.70
2022-11-28T09:12:51.992Z,17.70
2022-11-28T09:15:19.126Z,17.60
2022-11-28T09:17:46.512Z,17.60
2022-11-28T09:20:13.358Z,17.50
2022-11-28T09:22:40.726Z,17.60
2022-11-28T09:25:08.076Z,17.50
2022-11-28T09:27:34.733Z,17.60
2022-11-28T09:30:01.455Z,17.60
2022-11-28T09:32:28.103Z,17.50
2022-11-28T09:34:54.770Z,17.50
2022-11-28T09:37:21.416Z,17.50
2022-11-28T09:40:11.435Z,17.50
2022-11-28T09:42:44.492Z,17.50
2022-11-28T09:45:23.105Z,17.60
2022-11-28T09:47:56.286Z,17.50
2022-11-28T09:50:26.359Z,17.50
2022-11-28T09:53:23.808Z,17.50
2022-11-28T09:55:56.286Z,17.50
2022-11-28T09:58:22.901Z,17.40
2022-11-28T10:00:57.766Z,17.50
2022-11-28T10:03:50.220Z,17.50
2022-11-28T10:06:25.778Z,17.40
2022-11-28T10:09:18.366Z,17.40
2022-11-28T10:12:06.326Z,17.50
2022-11-28T10:14:46.851Z,17.50
2022-11-28T10:17:16.582Z,17.40
2022-11-28T10:19:54.572Z,17.50
2022-11-28T10:22:31.115Z,17.50
2022-11-28T10:25:10.246Z,17.50
2022-11-28T10:27:37.263Z,17.50
2022-11-28T10:30:23.849Z,17.70
2022-11-28T10:33:10.229Z,17.40
2022-11-28T10:35:47.462Z,17.50
2022-11-28T10:38:15.527Z,17.40
2022-11-28T10:40:58.414Z,17.50
2022-11-28T10:43:34.372Z,17.30
2022-11-28T10:46:20.311Z,17.20
2022-11-28T10:49:17.926Z,17.30
2022-11-28T10:52:17.865Z,17.40
2022-11-28T10:55:02.798Z,17.50
2022-11-28T10:57:52.588Z,17.50
2022-11-28T11:00:19.892Z,17.60
2022-11-28T11:02:48.553Z,17.60
2022-11-28T11:05:27.767Z,17.70
2022-11-28T11:07:57.521Z,17.70
2022-11-28T11:10:42.561Z,17.80
2022-11-28T11:13:17.742Z,17.70
2022-11-28T11:15:45.872Z,17.70
2022-11-28T11:18:23.140Z,17.70
2022-11-28T11:20:49.813Z,17.60
2022-11-28T11:23:19.362Z,17.70
2022-11-28T11:25:53.096Z,17.70
2022-11-28T11:28:47.104Z,17.70
2022-11-28T11:31:24.553Z,17.70
2022-11-28T11:34:01.060Z,17.60
2022-11-28T11:36:36.391Z,17.60
2022-11-28T11:39:13.221Z,17.70
2022-11-28T11:41:45.499Z,17.60
2022-11-28T11:44:15.367Z,17.70
2022-11-28T11:47:01.680Z,17.50
2022-11-28T11:49:43.597Z,17.50
2022-11-28T11:52:13.829Z,17.50
2022-11-28T11:54:56.255Z,17.50
2022-11-28T11:57:32.985Z,17.60
2022-11-28T12:00:10.597Z,17.70
2022-11-28T12:02:54.222Z,17.70
2022-11-28T12:05:27.934Z,17.60
2022-11-28T12:08:11.337Z,17.70
2022-11-28T12:10:45.137Z,17.60
2022-11-28T12:13:23.693Z,17.80
2022-11-28T12:16:24.255Z,17.80
2022-11-28T12:19:06.607Z,17.60
2022-11-28T12:21:41.859Z,17.80
2022-11-28T12:24:17.654Z,17.70
2022-11-28T12:26:57.966Z,17.70
2022-11-28T12:29:58.389Z,17.60
2022-11-28T12:32:40.167Z,17.60
2022-11-28T12:35:13.984Z,17.60
2022-11-28T12:38:10.841Z,17.70
2022-11-28T12:41:02.981Z,17.60
2022-11-28T12:43:42.592Z,17.60
2022-11-28T12:46:32.574Z,17.60
2022-11-28T12:49:14.176Z,17.60
2022-11-28T12:52:14.798Z,17.60
2022-11-28T12:54:54.695Z,17.70
2022-11-28T12:57:38.444Z,17.70
2022-11-28T13:00:35.162Z,17.60
2022-11-28T13:03:16.615Z,17.70
2022-11-28T13:06:28.812Z,17.60
2022-11-28T13:09:21.265Z,17.60
2022-11-28T13:12:42.520Z,17.60
2022-11-28T13:15:31.739Z,17.50
2022-11-28T13:18:09.331Z,17.60
2022-11-28T13:20:42.872Z,17.60
2022-11-28T13:23:28.437Z,17.50
2022-11-28T13:26:13.938Z,17.60
2022-11-28T13:28:56.033Z,17.50
2022-11-28T13:31:30.842Z,17.50
2022-11-28T13:33:57.747Z,17.50
2022-11-28T13:39:59.833Z,17.50
2022-11-28T13:45:32.727Z,17.50
2022-11-28T13:48:00.776Z,17.50
2022-11-28T13:50:30.482Z,17.50
2022-11-28T13:53:02.711Z,17.50
2022-11-28T13:55:40.038Z,17.50
2022-11-28T13:58:24.519Z,17.60
2022-11-28T14:01:25.095Z,17.50
2022-11-28T14:04:00.366Z,17.40
2022-11-28T14:06:49.096Z,17.40
2022-11-28T14:09:15.655Z,17.50
2022-11-28T14:12:07.845Z,17.50
2022-11-28T14:15:06.557Z,17.50
2022-11-28T14:17:36.362Z,17.50
2022-11-28T14:20:22.112Z,17.40
2022-11-28T14:23:12.737Z,17.40
2022-11-28T14:25:43.384Z,17.50
2022-11-28T14:28:38.086Z,17.50
2022-11-28T14:31:11.119Z,17.50
2022-11-28T14:33:42.337Z,17.40
2022-11-28T14:36:30.183Z,17.50
2022-11-28T14:39:33.137Z,17.40
2022-11-28T14:42:05.619Z,17.50
2022-11-28T14:44:50.720Z,17.50
2022-11-28T14:47:34.825Z,17.50
2022-11-28T14:50:04.865Z,17.50
2022-11-28T14:52:39.911Z,17.50
2022-11-28T14:55:10.707Z,17.60
2022-11-28T14:57:54.721Z,17.60
2022-11-28T15:00:28.865Z,17.60
2022-11-28T15:03:30.959Z,17.70
2022-11-28T15:06:08.735Z,17.40
2022-11-28T15:09:16.542Z,17.60
2022-11-28T15:12:04.985Z,17.60
2022-11-28T15:14:33.079Z,17.70
2022-11-28T15:17:10.887Z,17.60
2022-11-28T15:19:47.884Z,17.60
2022-11-28T15:22:41.869Z,17.60
2022-11-28T15:25:22.206Z,17.60
2022-11-28T15:27:49.738Z,17.60
2022-11-28T15:30:26.469Z,17.70
2022-11-28T15:33:00.105Z,17.70
2022-11-28T15:35:27.726Z,17.70
2022-11-28T15:37:57.825Z,17.70
2022-11-28T15:40:34.056Z,17.70
2022-11-28T15:43:06.627Z,17.80
2022-11-28T15:45:36.945Z,17.70
2022-11-28T15:48:04.701Z,17.80
2022-11-28T15:50:33.806Z,17.70
2022-11-28T15:53:13.484Z,17.80
2022-11-28T15:55:40.194Z,17.70
2022-11-28T15:58:30.799Z,17.80
2022-11-28T16:01:15.284Z,17.80
2022-11-28T16:04:04.848Z,17.80
2022-11-28T16:06:35.173Z,17.80
2022-11-28T16:09:05.195Z,17.70
2022-11-28T16:11:34.082Z,17.70
2022-11-28T16:14:10.537Z,17.90
2022-11-28T16:16:38.939Z,17.70
2022-11-28T16:19:34.900Z,17.70
2022-11-28T16:22:07.905Z,17.70
2022-11-28T16:24:44.960Z,17.60
2022-11-28T16:27:38.251Z,17.60
2022-11-28T16:30:23.302Z,17.70
2022-11-28T16:32:51.452Z,17.60
2022-11-28T16:35:41.437Z,17.70
2022-11-28T16:38:21.237Z,17.80
2022-11-28T16:40:48.125Z,17.70
2022-11-28T16:43:29.671Z,17.70
2022-11-28T16:46:02.242Z,17.80
2022-11-28T16:48:32.937Z,17.70
2022-11-28T16:51:02.431Z,17.70
2022-11-28T16:53:50.769Z,17.70
2022-11-28T16:56:29.846Z,17.70
2022-11-28T16:59:17.392Z,17.80
2022-11-28T17:01:51.251Z,17.60
2022-11-28T17:04:22.766Z,17.70
2022-11-28T17:06:50.425Z,17.70
2022-11-28T17:09:17.243Z,17.90
2022-11-28T17:12:04.674Z,17.70
2022-11-28T17:14:31.862Z,17.80
2022-11-28T17:17:01.242Z,17.80
2022-11-28T17:19:30.742Z,17.70
2022-11-28T17:21:59.505Z,17.70
2022-11-28T17:24:29.702Z,17.80
2022-11-28T17:26:56.528Z,17.70
2022-11-28T17:29:25.179Z,17.60
2022-11-28T17:31:54.994Z,17.60
2022-11-28T17:34:24.237Z,17.70
2022-11-28T17:36:51.582Z,17.80
2022-11-28T17:39:19.792Z,17.70
2022-11-28T17:41:47.250Z,17.70
2022-11-28T17:44:22.831Z,17.70
2022-11-28T17:46:51.119Z,17.70
2022-11-28T17:49:18.057Z,17.70
2022-11-28T17:51:45.256Z,17.70
2022-11-28T17:54:16.662Z,17.60
2022-11-28T17:56:47.707Z,17.70
2022-11-28T17:59:16.192Z,17.60
2022-11-28T18:01:43.096Z,17.60
2022-11-28T18:04:10.147Z,17.60
2022-11-28T18:06:36.806Z,17.60
2022-11-28T18:09:11.634Z,17.60
2022-11-28T18:11:39.749Z,17.60
2022-11-28T18:14:06.551Z,17.60
2022-11-28T18:16:35.423Z,17.60
2022-11-28T18:19:02.728Z,17.60
2022-11-28T18:21:29.425Z,17.60
2022-11-28T18:23:56.252Z,17.60
2022-11-28T18:26:24.422Z,17.70
2022-11-28T18:28:51.528Z,17.70
2022-11-28T18:31:22.355Z,17.50
2022-11-28T18:33:49.191Z,17.60
2022-11-28T18:36:24.503Z,17.50
2022-11-28T18:38:58.967Z,17.60
2022-11-28T18:41:26.597Z,17.50
2022-11-28T18:43:57.844Z,17.60
2022-11-28T18:46:25.955Z,17.60
2022-11-28T18:48:53.061Z,17.50
2022-11-28T18:51:22.357Z,17.50
2022-11-28T18:53:50.366Z,17.50
2022-11-28T18:56:17.663Z,17.50
2022-11-28T18:58:46.579Z,17.50
2022-11-28T19:01:17.608Z,17.60
2022-11-28T19:03:48.916Z,17.50
2022-11-28T19:06:15.565Z,17.50
2022-11-28T19:08:42.772Z,17.30
2022-11-28T19:11:14.222Z,17.40
2022-11-28T19:13:42.649Z,17.50
2022-11-28T19:16:12.294Z,17.50
2022-11-28T19:18:39.679Z,17.60
2022-11-28T19:21:07.887Z,17.60
2022-11-28T19:23:34.751Z,17.60
2022-11-28T19:26:07.621Z,17.60
2022-11-28T19:28:35.498Z,17.60
2022-11-28T19:31:15.016Z,17.70
2022-11-28T19:33:42.609Z,17.70
2022-11-28T19:36:11.972Z,17.80
2022-11-28T19:38:39.018Z,17.70
2022-11-28T19:41:17.207Z,17.70
2022-11-28T19:43:44.357Z,17.80
2022-11-28T19:46:12.228Z,17.80
2022-11-28T19:48:40.100Z,17.70
2022-11-28T19:51:08.409Z,17.70
2022-11-28T19:53:37.707Z,17.80
2022-11-28T19:56:05.906Z,17.70
2022-11-28T19:58:34.636Z,17.70
2022-11-28T20:01:16.432Z,17.70
2022-11-28T20:03:43.517Z,17.70
2022-11-28T20:06:12.730Z,17.70
2022-11-28T20:08:40.180Z,17.80
2022-11-28T20:11:12.697Z,17.70
2022-11-28T20:13:43.466Z,17.70
2022-11-28T20:16:12.461Z,17.80
2022-11-28T20:18:40.942Z,17.70
2022-11-28T20:21:10.494Z,17.70
2022-11-28T20:23:51.366Z,17.70
2022-11-28T20:26:20.211Z,17.60
2022-11-28T20:28:47.629Z,17.60
2022-11-28T20:31:26.566Z,17.70
2022-11-28T20:33:54.313Z,17.70
2022-11-28T20:36:24.005Z,17.80
2022-11-28T20:38:51.778Z,17.70
2022-11-28T20:41:20.418Z,17.60
2022-11-28T20:43:47.941Z,17.70
2022-11-28T20:46:16.002Z,17.80
2022-11-28T20:48:43.098Z,17.70
2022-11-28T20:51:12.183Z,17.70
2022-11-28T20:53:41.182Z,17.70
2022-11-28T20:56:19.355Z,17.70
2022-11-28T20:58:46.306Z,17.70
2022-11-28T21:01:22.305Z,17.70
2022-11-28T21:03:49.607Z,17.70
2022-11-28T21:06:16.940Z,17.70
2022-11-28T21:08:43.668Z,17.70
2022-11-28T21:11:25.556Z,17.60
2022-11-28T21:13:58.118Z,17.60
2022-11-28T21:16:28.344Z,17.60
2022-11-28T21:19:02.330Z,17.60
2022-11-28T21:21:31.210Z,17.80
2022-11-28T21:24:03.374Z,17.60
2022-11-28T21:26:33.060Z,17.60
2022-11-28T21:29:06.975Z,17.70
2022-11-28T21:31:40.304Z,17.50
2022-11-28T21:34:07.361Z,17.60
2022-11-28T21:36:34.069Z,17.70
2022-11-28T21:39:01.390Z,17.60
2022-11-28T21:41:31.235Z,17.70
2022-11-28T21:43:58.638Z,17.60
2022-11-28T21:46:26.479Z,17.50
2022-11-28T21:48:53.651Z,17.60
2022-11-28T21:51:23.935Z,17.60
2022-11-28T21:53:51.097Z,17.60
2022-11-28T21:56:18.336Z,17.50
2022-11-28T21:58:45.068Z,17.60
2022-11-28T22:01:14.053Z,17.70
2022-11-28T22:03:43.765Z,17.70
2022-11-28T22:06:19.066Z,17.70
2022-11-28T22:08:46.126Z,17.80
2022-11-28T22:11:13.361Z,17.80
2022-11-28T22:13:47.626Z,17.80
2022-11-28T22:16:23.319Z,18.00
2022-11-28T22:18:53.303Z,17.90
2022-11-28T22:24:08.235Z,18.10
2022-11-28T22:26:35.092Z,17.80
2022-11-28T22:29:03.858Z,17.90
2022-11-28T22:31:30.939Z,17.80
2022-11-28T22:33:57.657Z,17.80
2022-11-28T22:36:24.462Z,17.90
2022-11-28T22:38:55.358Z,17.80
2022-11-28T22:41:28.376Z,17.90
2022-11-28T22:43:59.524Z,17.90
2022-11-28T22:46:26.322Z,17.90
2022-11-28T22:48:53.090Z,17.90
2022-11-28T22:51:22.296Z,17.80
2022-11-28T22:53:53.823Z,17.80
2022-11-28T22:56:20.790Z,17.80
2022-11-28T22:58:48.603Z,17.90
2022-11-28T23:01:18.902Z,17.80
2022-11-28T23:03:46.578Z,17.80
2022-11-28T23:06:16.270Z,17.80
2022-11-28T23:08:43.405Z,17.80
2022-11-28T23:11:13.766Z,17.80
2022-11-28T23:13:41.112Z,17.80
2022-11-28T23:16:29.876Z,17.70
2022-11-28T23:18:59.076Z,17.80
2022-11-28T23:21:28.522Z,17.70
2022-11-28T23:23:56.295Z,17.70
2022-11-28T23:26:25.069Z,17.70
2022-11-28T23:28:52.485Z,17.80
2022-11-28T23:31:22.742Z,17.70
2022-11-28T23:33:49.756Z,17.70
2022-11-28T23:36:18.785Z,17.70
2022-11-28T23:38:46.963Z,17.80
2022-11-28T23:41:14.335Z,17.70
2022-11-28T23:43:41.556Z,17.70
2022-11-28T23:46:10.278Z,17.70
2022-11-28T23:48:37.901Z,17.70
2022-11-28T23:51:06.225Z,17.70
2022-11-28T23:53:33.727Z,17.70
2022-11-28T23:56:08.581Z,17.60
2022-11-28T23:58:35.376Z,17.70
